EST,Max TemperatureF,Mean TemperatureF,Min TemperatureF,Max Dew PointF,MeanDew PointF,Min DewpointF,Max Humidity, Mean Humidity, Min Humidity, Max Sea Level PressureIn, Mean Sea Level PressureIn, Min Sea Level PressureIn, Max VisibilityMiles, Mean VisibilityMiles, Min VisibilityMiles, Max Wind SpeedMPH, Mean Wind SpeedMPH, Max Gust SpeedMPH,PrecipitationIn, CloudCover, Events, WindDirDegrees
2013-12-1,51,36,21,37,29,19,100,73,47,30.33,30.19,30.03,10,10,10,7,1,,0.00,3,,206
2013-12-2,48,45,42,46,43,36,100,91,71,30.01,29.91,29.84,10,6,1,6,1,,0.00,8,,223
2013-12-3,55,50,44,52,48,45,100,95,82,29.90,29.87,29.85,10,6,2,4,0,,0.00,8,,331
2013-12-4,69,60,50,57,54,50,100,84,64,30.01,29.95,29.90,10,9,5,13,2,,0.00,5,,198
2013-12-5,71,63,55,64,62,54,100,88,73,30.06,30.00,29.96,10,10,4,9,4,,0.00,6,,210
2013-12-6,51,44,37,52,45,36,100,98,93,30.21,30.06,29.95,10,8,2,9,4,,0.00,8,,3
2013-12-7,39,36,33,37,34,30,100,92,81,30.41,30.35,30.22,10,9,2,12,5,,0.00,8,,23
2013-12-8,44,38,33,43,37,34,100,97,93,30.33,30.20,30.09,10,6,1,9,3,,0.00,8,,39
2013-12-9,50,44,37,46,44,36,100,95,81,30.18,30.13,30.05,10,7,2,8,2,,0.00,8,,247
2013-12-10,39,31,23,37,30,23,100,87,56,30.39,30.24,30.02,10,8,0,12,3,,0.00,4,,337
2013-12-11,48,34,19,32,25,19,100,79,37,30.47,30.41,30.36,10,10,10,7,1,,0.00,0,,253
2013-12-12,37,29,21,25,18,10,93,68,33,30.55,30.47,30.42,10,10,10,6,2,,0.00,1,,14
2013-12-13,46,32,17,28,21,16,100,69,34,30.45,30.30,30.16,10,10,10,6,0,,0.00,0,,56
2013-12-14,50,42,35,50,40,27,100,88,46,30.19,29.94,29.82,10,8,2,13,2,,0.00,6,,247
2013-12-15,42,36,30,37,29,25,93,82,75,30.24,30.11,29.91,10,10,10,13,6,,0.00,8,,301
2013-12-16,48,36,23,32,28,21,100,76,50,30.27,30.21,30.14,10,9,3,10,2,,0.00,0,,215
2013-12-17,57,44,30,36,30,21,93,61,41,30.27,30.16,30.05,10,10,10,15,4,,0.00,1,,245
2013-12-18,46,34,21,25,21,16,93,68,29,30.38,30.32,30.26,10,10,9,6,1,,0.00,0,,354
2013-12-19,59,39,19,28,23,16,100,68,19,30.33,30.25,30.16,10,10,10,12,1,,0.00,0,,221
2013-12-20,60,44,28,50,38,27,100,73,45,30.19,30.14,30.08,10,10,10,10,1,,0.00,6,,219
2013-12-21,71,61,51,64,58,48,94,76,64,30.07,29.95,29.85,10,10,2,12,4,22,0.00,8,,186
2013-12-22,71,62,53,64,56,54,100,93,68,30.09,29.98,29.84,10,9,2,20,6,33,0.00,7,,206
2013-12-23,53,43,33,54,37,25,100,84,70,30.36,30.24,30.07,10,10,3,14,6,,0.00,7,,325
2013-12-24,33,27,21,25,18,12,86,65,41,30.50,30.43,30.36,10,10,10,12,4,,0.00,4,,343
2013-12-25,44,30,15,25,19,14,100,72,39,30.47,30.40,30.34,10,10,9,7,1,,0.00,0,,230
2013-12-26,46,32,19,27,23,18,100,77,40,30.42,30.36,30.32,10,10,9,5,0,,0.00,0,,349
2013-12-27,51,36,21,28,24,19,100,75,30,30.48,30.42,30.37,10,10,9,4,0,,0.00,0,,83
2013-12-28,39,30,21,36,29,19,100,92,65,30.41,30.28,29.96,10,8,2,7,1,,0.00,3,,37
2013-12-29,46,40,33,43,39,34,100,97,87,30.07,29.97,29.90,10,6,0,7,1,,0.00,7,,209
2013-12-30,39,36,33,39,32,28,100,85,70,30.25,30.17,30.06,10,10,9,9,2,,0.00,8,,331
2013-12-31,39,32,24,30,25,21,100,84,52,30.48,30.36,30.23,10,9,0,7,1,,0.00,0,,45